WetterOnline ( https://www.wetteronline.de )

Wetter aktuell Bottrop

Aktuelles Wetter: Essen (161m)

6-stündlich | Neueste Meldungen
Ortszeit Temperatur Wetter
Fr, 22.01. 19:00 3.9° C wolkig
Fr, 22.01. 13:00 5.2° C wolkig
Fr, 22.01. 7:00 3.2° C bewölkt
Fr, 22.01. 1:00 9.7° C bewölkt
Do, 21.01. 19:00 7.4° C wolkig
Do, 21.01. 13:00 6.9° C bedeckt
Do, 21.01. 7:00 6.4° C leichter Regen
Do, 21.01. 1:00 10.5° C bewölkt
Ortszeit Temperatur Wetter
Fr, 22.01. 23:30 2.2° C bedeckt
Fr, 22.01. 23:20 2.2° C bedeckt
Fr, 22.01. 23:10 2.4° C bedeckt
Fr, 22.01. 23:00 2.5° C bedeckt
Fr, 22.01. 22:50 2.5° C bedeckt
Fr, 22.01. 22:40 2.6° C bedeckt
Fr, 22.01. 22:30 2.9° C bedeckt
Fr, 22.01. 22:00 2.8° C bedeckt
Ortszeit Relative Feuchte Sichtweite
Fr, 22.01. 19:00 76% 50 km
Fr, 22.01. 13:00 83% 29 km
Fr, 22.01. 7:00 92% 26 km
Fr, 22.01. 1:00 75% 60 km
Do, 21.01. 19:00 67% 45 km
Do, 21.01. 13:00 70% 55 km
Do, 21.01. 7:00 92% 11 km
Do, 21.01. 1:00 62% >70 km
Ortszeit Relative Feuchte Sichtweite
Fr, 22.01. 23:30 84% 30 km
Fr, 22.01. 23:20 84% -
Fr, 22.01. 23:10 84% -
Fr, 22.01. 23:00 83% 35 km
Fr, 22.01. 22:50 83% -
Fr, 22.01. 22:40 82% -
Fr, 22.01. 22:30 81% 35 km
Fr, 22.01. 22:00 82% 30 km
Ortszeit Niederschlagsmenge Niederschlagsart
Fr, 22.01. 19:00 0.0 l/m2 in 12 Std. -
Fr, 22.01. 13:00 0.0 l/m2 in 6 Std. -
Fr, 22.01. 7:00 7 l/m2 in 12 Std. Regen
Fr, 22.01. 1:00 4 l/m2 in 6 Std. Regen
Do, 21.01. 19:00 0.5 l/m2 in 12 Std. -
Do, 21.01. 13:00 0.5 l/m2 in 6 Std. Regen
Do, 21.01. 7:00 2 l/m2 in 12 Std. Regen
Do, 21.01. 1:00 0.1 l/m2 in 6 Std. Regen
Ortszeit Niederschlagsmenge Niederschlagsart
Fr, 22.01. 23:30 0.0 l/m2 in 1 Std. -
Fr, 22.01. 23:20 keine Meldung -
Fr, 22.01. 23:10 keine Meldung -
Fr, 22.01. 23:00 0.0 l/m2 in 1 Std. -
Fr, 22.01. 22:50 keine Meldung -
Fr, 22.01. 22:40 keine Meldung -
Fr, 22.01. 22:30 0.0 l/m2 in 1 Std. -
Fr, 22.01. 22:00 0.0 l/m2 in 1 Std. -
Ortszeit Stärke Spitze Richtung
km/h Bft. km/h Grad Sektor
Fr, 22.01. 19:00 9 2 28 230° SW
Fr, 22.01. 13:00 14 3 29 230° SW
Fr, 22.01. 7:00 14 3 58 220° SW
Fr, 22.01. 1:00 25 4 54 210° SW
Do, 21.01. 19:00 18 3 54 180° S
Do, 21.01. 13:00 26 4 61 210° SW
Do, 21.01. 7:00 31 5 74 240° SW
Do, 21.01. 1:00 29 5 58 180° S
Ortszeit Stärke Spitze Richtung
km/h Bft. km/h Grad Sektor
Fr, 22.01. 23:30 9 2 13 220° SW
Fr, 22.01. 23:20 9 2 - 220° SW
Fr, 22.01. 23:10 7 2 - 220° SW
Fr, 22.01. 23:00 7 2 14 210° SW
Fr, 22.01. 22:50 7 2 - 210° SW
Fr, 22.01. 22:40 7 2 - 220° SW
Fr, 22.01. 22:30 7 2 14 220° SW
Fr, 22.01. 22:00 7 2 14 220° SW
Ortszeit Untergrenze Bedeckung Gattung
total tief tief mittel hoch
Fr, 22.01. 19:00 5100 m 7/8 3/8 - - -
Fr, 22.01. 13:00 420 m 6/8 2/8 - - -
Fr, 22.01. 7:00 300 m 8/8 5/8 - - -
Fr, 22.01. 1:00 810 m 7/8 8/8 - - -
Do, 21.01. 19:00 1260 m 6/8 5/8 - - -
Do, 21.01. 13:00 780 m 8/8 8/8 - - -
Do, 21.01. 7:00 420 m 7/8 7/8 - - -
Do, 21.01. 1:00 2400 m 7/8 7/8 - - -
Ortszeit Bedeckungsgrad in Achtel und Wolkenuntergrenze
Fr, 22.01. 23:30 8(5400m)
Fr, 22.01. 23:20 8(5400m)
Fr, 22.01. 23:10 8(5400m)
Fr, 22.01. 23:00 8(5400m) 8(6300m) 8(7200m)
Fr, 22.01. 22:50 8(5400m) 8(6300m) 8(7200m)
Fr, 22.01. 22:40 8(5400m) 8(6300m) 8(7200m)
Fr, 22.01. 22:30 8(5100m) 8(6300m) 8(7200m)
Fr, 22.01. 22:00 8(5400m)
Ortszeit Luftdruck NN (hPa) Tendenz (hPa in 3 Std.)
Fr, 22.01. 19:00 996 + 0,8
Fr, 22.01. 13:00 994 + 1,9
Fr, 22.01. 7:00 991 + 2,6
Fr, 22.01. 1:00 985 - 1,7
Do, 21.01. 19:00 992 - 1,5
Do, 21.01. 13:00 995 + 0,8
Do, 21.01. 7:00 991 + 2,3
Do, 21.01. 1:00 992 - 2,9
Ortszeit Luftdruck NN (hPa) Tendenz (hPa in 3 Std.)
Fr, 22.01. 23:30 998 + 0,6
Fr, 22.01. 23:20 998 keine Meldung
Fr, 22.01. 23:10 998 keine Meldung
Fr, 22.01. 23:00 998 + 0,8
Fr, 22.01. 22:50 998 keine Meldung
Fr, 22.01. 22:40 998 keine Meldung
Fr, 22.01. 22:30 998 + 0,9
Fr, 22.01. 22:00 998 + 1,1
Ortszeit Schneehöhe (cm)
Fr, 22.01. 19:00 0
Fr, 22.01. 13:00 0
Fr, 22.01. 7:00 0
Fr, 22.01. 1:00 0
Do, 21.01. 19:00 0
Do, 21.01. 13:00 0
Do, 21.01. 7:00 0
Do, 21.01. 1:00 0
Ortszeit Schneehöhe (cm)
Fr, 22.01. 23:30 0
Fr, 22.01. 23:20 0
Fr, 22.01. 23:10 0
Fr, 22.01. 23:00 0
Fr, 22.01. 22:50 0
Fr, 22.01. 22:40 0
Fr, 22.01. 22:30 0
Fr, 22.01. 22:00 0
Link zu dieser Seite / Seite empfehlen

Das Wetter in ...